createdAt,value
2019-02-07T00:01:08.643Z,64.43
2019-02-07T00:03:38.773Z,62.90
2019-02-07T00:06:09.202Z,68.73
2019-02-07T00:08:39.478Z,62.17
2019-02-07T00:11:09.848Z,75.97
2019-02-07T00:13:41.833Z,64.40
2019-02-07T00:16:12.067Z,67.90
2019-02-07T00:18:44.051Z,68.33
2019-02-07T00:21:16.510Z,72.73
2019-02-07T00:23:47.308Z,70.37
2019-02-07T00:26:17.703Z,76.07
2019-02-07T00:28:48.086Z,79.20
2019-02-07T00:31:19.978Z,65.00
2019-02-07T00:33:50.202Z,64.47
2019-02-07T00:36:20.413Z,63.77
2019-02-07T00:38:50.878Z,65.87
2019-02-07T00:41:22.837Z,64.37
2019-02-07T00:43:53.662Z,60.20
2019-02-07T00:46:23.790Z,61.77
2019-02-07T00:48:55.649Z,55.13
2019-02-07T00:51:27.198Z,60.77
2019-02-07T00:53:58.715Z,58.73
2019-02-07T00:56:30.944Z,62.10
2019-02-07T00:59:01.184Z,60.43
2019-02-07T01:01:31.490Z,61.80
2019-02-07T01:04:01.875Z,64.23
2019-02-07T01:06:33.753Z,54.30
2019-02-07T01:09:05.463Z,58.37
2019-02-07T01:11:36.329Z,60.37
2019-02-07T01:14:06.902Z,52.40
2019-02-07T01:16:37.260Z,61.87
2019-02-07T01:19:08.034Z,71.20
2019-02-07T01:21:38.176Z,60.93
2019-02-07T01:24:08.976Z,62.87
2019-02-07T01:26:39.134Z,62.00
2019-02-07T01:29:11.202Z,66.20
2019-02-07T01:31:41.639Z,73.23
2019-02-07T01:34:12.348Z,75.53
2019-02-07T01:36:43.979Z,70.67
2019-02-07T01:39:14.535Z,77.73
2019-02-07T01:41:44.932Z,66.13
2019-02-07T01:44:15.192Z,67.63
2019-02-07T01:46:45.358Z,68.97
2019-02-07T01:49:15.353Z,71.33
2019-02-07T01:51:45.833Z,66.30
2019-02-07T01:54:16.253Z,70.07
2019-02-07T01:56:47.779Z,64.33
2019-02-07T01:59:18.080Z,58.47
2019-02-07T02:01:48.852Z,68.93
2019-02-07T02:04:20.695Z,67.17
2019-02-07T02:06:52.515Z,54.47
2019-02-07T02:09:24.064Z,49.97
2019-02-07T02:11:54.542Z,53.00
2019-02-07T02:14:26.354Z,57.13
2019-02-07T02:16:57.136Z,51.07
2019-02-07T02:19:28.099Z,54.70
2019-02-07T02:21:58.649Z,50.37
2019-02-07T02:24:29.961Z,49.03
2019-02-07T02:27:00.453Z,48.10
2019-02-07T02:29:34.018Z,49.33
2019-02-07T02:32:04.329Z,52.43
2019-02-07T02:34:36.201Z,56.47
2019-02-07T02:37:06.675Z,52.37
2019-02-07T02:39:37.084Z,53.10
2019-02-07T02:42:07.305Z,61.53
2019-02-07T02:44:39.665Z,54.63
2019-02-07T02:47:10.116Z,55.80
2019-02-07T02:49:40.949Z,61.07
2019-02-07T02:52:11.464Z,61.30
2019-02-07T02:54:43.595Z,62.80
2019-02-07T02:57:16.124Z,64.00
2019-02-07T02:59:46.561Z,65.43
2019-02-07T03:02:18.521Z,62.00
2019-02-07T03:05:08.979Z,66.23
2019-02-07T03:07:51.579Z,71.50
2019-02-07T03:10:26.515Z,71.23
2019-02-07T03:13:16.239Z,66.83
2019-02-07T03:15:57.175Z,75.27
2019-02-07T03:18:32.030Z,70.43
2019-02-07T03:21:19.245Z,75.17
2019-02-07T03:23:52.459Z,75.00
2019-02-07T03:26:33.420Z,81.50
2019-02-07T03:29:11.711Z,82.87
2019-02-07T03:31:44.014Z,86.27
2019-02-07T03:34:32.762Z,87.33
2019-02-07T03:37:06.219Z,88.50
2019-02-07T03:39:54.272Z,88.60
2019-02-07T03:42:29.368Z,88.07
2019-02-07T03:45:13.230Z,78.00
2019-02-07T03:47:46.924Z,77.03
2019-02-07T03:50:27.737Z,71.23
2019-02-07T03:53:03.907Z,67.80
2019-02-07T03:55:35.857Z,62.83
2019-02-07T03:58:08.460Z,68.20
2019-02-07T04:00:40.446Z,68.27
2019-02-07T04:03:12.430Z,68.60
2019-02-07T04:05:53.160Z,69.27
2019-02-07T04:08:26.012Z,57.70
2019-02-07T04:11:04.242Z,55.03
2019-02-07T04:13:48.809Z,52.47
2019-02-07T04:16:35.747Z,55.73
2019-02-07T04:19:10.739Z,56.27
2019-02-07T04:21:47.321Z,57.33
2019-02-07T04:24:24.857Z,53.93
2019-02-07T04:26:58.326Z,53.00
2019-02-07T04:29:35.917Z,55.43
2019-02-07T04:32:19.943Z,60.10
2019-02-07T04:34:58.168Z,55.80
2019-02-07T04:37:40.224Z,57.23
2019-02-07T04:40:32.325Z,58.17
2019-02-07T04:43:10.366Z,56.57
2019-02-07T04:45:59.826Z,57.87
2019-02-07T04:48:32.107Z,61.30
2019-02-07T04:51:04.229Z,63.10
2019-02-07T04:53:52.533Z,61.50
2019-02-07T04:56:44.275Z,64.10
2019-02-07T04:59:33.040Z,58.47
2019-02-07T05:02:23.492Z,53.07
2019-02-07T05:05:05.454Z,55.93
2019-02-07T05:07:41.658Z,63.93
2019-02-07T05:10:17.334Z,64.37
2019-02-07T05:13:05.675Z,68.13
2019-02-07T05:15:38.728Z,59.77
2019-02-07T05:18:16.686Z,57.57
2019-02-07T05:20:49.984Z,65.40
2019-02-07T05:23:26.058Z,68.63
2019-02-07T05:26:14.996Z,64.37
2019-02-07T05:28:52.801Z,70.80
2019-02-07T05:31:36.598Z,75.03
2019-02-07T05:34:11.072Z,79.83
2019-02-07T05:36:55.250Z,74.17
2019-02-07T05:39:43.547Z,76.57
2019-02-07T05:42:15.643Z,79.50
2019-02-07T05:44:53.911Z,72.50
2019-02-07T05:47:29.997Z,76.43
2019-02-07T05:50:11.187Z,85.53
2019-02-07T05:52:52.555Z,76.67
2019-02-07T05:55:40.179Z,82.87
2019-02-07T05:58:18.193Z,78.77
2019-02-07T06:00:50.939Z,77.77
2019-02-07T06:03:32.730Z,84.73
2019-02-07T06:06:19.923Z,71.40
2019-02-07T06:08:51.764Z,75.60
2019-02-07T06:11:33.984Z,78.47
2019-02-07T06:14:23.683Z,78.07
2019-02-07T06:17:12.113Z,76.23
2019-02-07T06:19:44.083Z,77.53
2019-02-07T06:22:32.438Z,77.57
2019-02-07T06:25:10.435Z,79.50
2019-02-07T06:27:42.542Z,81.60
2019-02-07T06:30:20.068Z,75.97
2019-02-07T06:33:09.388Z,72.37
2019-02-07T06:35:41.725Z,76.10
2019-02-07T06:38:16.763Z,76.07
2019-02-07T06:40:48.750Z,73.77
2019-02-07T06:43:20.623Z,74.00
2019-02-07T06:45:55.532Z,70.20
2019-02-07T06:48:44.081Z,81.00
2019-02-07T06:51:18.945Z,66.00
2019-02-07T06:53:51.043Z,67.10
2019-02-07T06:56:35.408Z,65.70
2019-02-07T06:59:23.758Z,73.37
2019-02-07T07:01:56.264Z,74.10
2019-02-07T07:04:45.212Z,66.57
2019-02-07T07:07:20.685Z,68.53
2019-02-07T07:09:59.522Z,91.60
2019-02-07T07:12:32.685Z,76.87
2019-02-07T07:15:12.424Z,64.23
2019-02-07T07:17:47.530Z,69.07
2019-02-07T07:20:25.541Z,60.70
2019-02-07T07:23:15.394Z,63.73
2019-02-07T07:26:05.691Z,63.33
2019-02-07T07:28:50.007Z,63.43
2019-02-07T07:31:25.038Z,60.27
2019-02-07T07:34:02.234Z,57.83
2019-02-07T07:36:37.630Z,61.03
2019-02-07T07:39:13.803Z,64.07
2019-02-07T07:41:49.823Z,65.20
2019-02-07T07:44:22.479Z,65.00
2019-02-07T07:47:06.411Z,61.30
2019-02-07T07:49:41.680Z,62.53
2019-02-07T07:52:32.216Z,61.47
2019-02-07T07:55:05.623Z,53.23
2019-02-07T07:57:40.627Z,56.47
2019-02-07T08:00:19.074Z,52.60
2019-02-07T08:02:54.668Z,52.33
2019-02-07T08:05:29.541Z,53.77
2019-02-07T08:08:13.770Z,48.20
2019-02-07T08:10:54.538Z,50.90
2019-02-07T08:13:30.306Z,51.90
2019-02-07T08:16:05.614Z,49.07
2019-02-07T08:18:37.588Z,53.33
2019-02-07T08:21:29.292Z,42.53
2019-02-07T08:24:01.292Z,46.13
2019-02-07T08:26:45.694Z,46.30
2019-02-07T08:29:26.933Z,48.23
2019-02-07T08:32:05.266Z,45.80
2019-02-07T08:34:41.758Z,42.33
2019-02-07T08:37:29.913Z,40.83
2019-02-07T08:40:03.418Z,42.83
2019-02-07T08:42:53.567Z,40.17
2019-02-07T08:45:43.486Z,42.57
2019-02-07T08:48:15.378Z,39.30
2019-02-07T08:51:00.821Z,37.37
2019-02-07T08:53:36.861Z,41.50
2019-02-07T08:56:23.959Z,38.97
2019-02-07T08:59:12.557Z,31.17
2019-02-07T09:01:44.794Z,37.60
2019-02-07T09:04:19.841Z,37.37
2019-02-07T09:07:08.101Z,37.07
2019-02-07T09:09:41.476Z,37.23
2019-02-07T09:12:17.591Z,35.50
2019-02-07T09:15:06.425Z,34.57
2019-02-07T09:17:47.943Z,33.47
2019-02-07T09:20:20.150Z,32.97
2019-02-07T09:23:04.649Z,37.90
2019-02-07T09:25:54.635Z,40.83
2019-02-07T09:28:29.166Z,39.13
2019-02-07T09:31:02.618Z,36.57
2019-02-07T09:33:43.777Z,38.13
2019-02-07T09:36:15.769Z,41.57
2019-02-07T09:39:05.461Z,38.77
2019-02-07T09:41:48.182Z,40.33
2019-02-07T09:44:30.277Z,39.70
2019-02-07T09:47:05.307Z,38.87
2019-02-07T09:49:41.673Z,41.67
2019-02-07T09:52:13.503Z,42.13
2019-02-07T09:54:45.688Z,40.27
2019-02-07T09:57:17.937Z,40.77
2019-02-07T10:00:10.819Z,44.13
2019-02-07T10:02:42.657Z,36.53
2019-02-07T10:05:18.404Z,45.80
2019-02-07T10:07:57.589Z,34.97
2019-02-07T10:10:31.265Z,41.30
2019-02-07T10:13:18.317Z,44.17
2019-02-07T10:15:59.666Z,49.87
2019-02-07T10:18:39.192Z,46.17
2019-02-07T10:21:12.488Z,45.57
2019-02-07T10:23:56.835Z,48.07
2019-02-07T10:26:37.930Z,40.57
2019-02-07T10:29:20.609Z,44.87
2019-02-07T10:32:06.322Z,47.27
2019-02-07T10:34:51.661Z,48.37
2019-02-07T10:37:41.890Z,42.63
2019-02-07T10:40:32.571Z,41.67
2019-02-07T10:43:16.024Z,43.57
2019-02-07T10:45:58.052Z,40.47
2019-02-07T10:48:46.724Z,42.80
2019-02-07T10:51:18.504Z,38.87
2019-02-07T10:53:53.769Z,37.43
2019-02-07T10:56:33.425Z,41.13
2019-02-07T10:59:09.980Z,41.50
2019-02-07T11:01:43.708Z,38.17
2019-02-07T11:04:16.077Z,40.70
2019-02-07T11:07:04.765Z,42.43
2019-02-07T11:09:41.160Z,46.93
2019-02-07T11:12:29.639Z,40.03
2019-02-07T11:15:04.866Z,41.63
2019-02-07T11:17:37.238Z,39.03
2019-02-07T11:20:34.420Z,35.87
2019-02-07T11:23:08.434Z,37.23
2019-02-07T11:25:45.171Z,41.73
2019-02-07T11:28:34.154Z,39.50
2019-02-07T11:31:06.210Z,39.10
2019-02-07T11:33:38.496Z,33.73
2019-02-07T11:36:14.830Z,35.50
2019-02-07T11:39:04.619Z,40.13
2019-02-07T11:41:55.745Z,38.43
2019-02-07T11:44:27.713Z,35.43
2019-02-07T11:47:16.057Z,35.80
2019-02-07T11:49:48.135Z,34.53
2019-02-07T11:52:23.200Z,37.43
2019-02-07T11:54:59.555Z,39.40
2019-02-07T11:57:34.641Z,35.67
2019-02-07T12:00:22.377Z,35.17
2019-02-07T12:03:00.615Z,41.17
2019-02-07T12:05:42.024Z,36.07
2019-02-07T12:08:31.663Z,39.03
2019-02-07T12:11:05.826Z,38.03
2019-02-07T12:13:40.635Z,34.43
2019-02-07T12:16:18.290Z,34.87
2019-02-07T12:18:53.158Z,34.53
2019-02-07T12:21:34.046Z,35.00
2019-02-07T12:24:25.127Z,37.73
2019-02-07T12:27:13.658Z,35.93
2019-02-07T12:30:02.877Z,39.50
2019-02-07T12:32:40.879Z,36.73
2019-02-07T12:35:31.257Z,41.13
2019-02-07T12:38:08.743Z,41.23
2019-02-07T12:40:43.689Z,37.50
2019-02-07T12:43:25.327Z,38.80
2019-02-07T12:46:00.198Z,37.97
2019-02-07T12:48:39.744Z,35.47
2019-02-07T12:51:13.007Z,36.53
2019-02-07T12:53:45.224Z,35.37
2019-02-07T12:56:22.230Z,34.97
2019-02-07T12:59:10.968Z,33.30
2019-02-07T13:01:51.968Z,32.23
2019-02-07T13:04:33.556Z,31.03
2019-02-07T13:07:22.396Z,33.57
2019-02-07T13:09:55.114Z,32.73
2019-02-07T13:12:34.916Z,33.97
2019-02-07T13:15:27.381Z,26.90
2019-02-07T13:18:05.585Z,29.13
2019-02-07T13:20:54.815Z,27.33
2019-02-07T13:23:28.111Z,31.17
2019-02-07T13:26:00.088Z,26.17
2019-02-07T13:28:42.598Z,27.80
2019-02-07T13:31:32.585Z,30.47
2019-02-07T13:34:04.838Z,26.37
2019-02-07T13:36:36.688Z,26.80
2019-02-07T13:39:09.816Z,24.23
2019-02-07T13:41:42.190Z,25.40
2019-02-07T13:44:17.025Z,28.57
2019-02-07T13:46:52.280Z,27.13
2019-02-07T13:49:27.274Z,27.63
2019-02-07T13:52:05.548Z,25.93
2019-02-07T13:54:37.865Z,29.13
2019-02-07T13:57:27.741Z,26.93
2019-02-07T13:59:59.757Z,25.03
2019-02-07T14:02:34.438Z,25.30
2019-02-07T14:05:25.392Z,25.17
2019-02-07T14:07:57.387Z,19.60
2019-02-07T14:10:45.622Z,19.60
2019-02-07T14:13:36.396Z,17.80
2019-02-07T14:16:14.371Z,19.73
2019-02-07T14:18:49.158Z,17.77
2019-02-07T14:21:22.548Z,14.57
2019-02-07T14:24:03.458Z,13.13
2019-02-07T14:26:37.851Z,19.17
2019-02-07T14:29:15.657Z,14.10
2019-02-07T14:32:02.958Z,14.87
2019-02-07T14:34:46.837Z,17.93
2019-02-07T14:37:22.254Z,18.37
2019-02-07T14:39:55.797Z,17.20
2019-02-07T14:42:45.718Z,16.67
2019-02-07T14:45:35.038Z,27.33
2019-02-07T14:48:05.831Z,15.67
2019-02-07T14:50:36.421Z,17.87
2019-02-07T14:53:06.785Z,21.13
2019-02-07T14:55:37.398Z,18.43
2019-02-07T14:58:07.819Z,16.03
2019-02-07T15:00:38.175Z,13.00
2019-02-07T15:03:08.564Z,12.77
2019-02-07T15:05:38.755Z,14.43
2019-02-07T15:08:09.059Z,12.80
2019-02-07T15:10:39.318Z,21.33
2019-02-07T15:13:09.759Z,13.63
2019-02-07T15:15:40.223Z,15.77
2019-02-07T15:18:10.881Z,16.60
2019-02-07T15:20:41.475Z,10.23
2019-02-07T15:23:12.173Z,16.93
2019-02-07T15:25:42.800Z,11.57
2019-02-07T15:28:13.456Z,11.57
2019-02-07T15:30:44.047Z,17.30
2019-02-07T15:33:14.492Z,15.83
2019-02-07T15:35:47.634Z,12.27
2019-02-07T15:38:17.979Z,11.93
2019-02-07T15:40:48.981Z,13.90
2019-02-07T15:43:19.510Z,12.03
2019-02-07T15:45:49.769Z,12.43
2019-02-07T15:48:20.598Z,13.43
2019-02-07T15:50:51.253Z,13.00
2019-02-07T15:53:21.643Z,14.80
2019-02-07T15:55:51.816Z,17.60
2019-02-07T15:58:23.806Z,11.77
2019-02-07T16:00:59.224Z,14.70
2019-02-07T16:03:32.833Z,15.23
2019-02-07T16:06:03.186Z,11.47
2019-02-07T16:08:34.703Z,15.60
2019-02-07T16:11:06.621Z,11.10
2019-02-07T16:13:37.816Z,17.97
2019-02-07T16:16:08.627Z,16.37
2019-02-07T16:18:41.787Z,21.67
2019-02-07T16:21:11.278Z,9.57
2019-02-07T16:23:43.121Z,19.30
2019-02-07T16:26:13.668Z,19.27
2019-02-07T16:28:46.843Z,19.70
2019-02-07T16:31:17.617Z,21.23
2019-02-07T16:33:49.244Z,21.90
2019-02-07T16:36:19.964Z,17.40
2019-02-07T16:38:50.597Z,17.13
2019-02-07T16:41:22.233Z,12.37
2019-02-07T16:43:52.609Z,11.47
2019-02-07T16:46:23.389Z,16.63
2019-02-07T16:48:53.956Z,15.37
2019-02-07T16:51:24.528Z,14.00
2019-02-07T16:53:56.194Z,14.80
2019-02-07T16:56:26.879Z,12.57
2019-02-07T16:58:58.591Z,16.47
2019-02-07T17:01:30.520Z,17.27
2019-02-07T17:04:00.865Z,13.20
2019-02-07T17:06:32.701Z,13.93
2019-02-07T17:09:05.243Z,15.13
2019-02-07T17:11:35.778Z,19.10
2019-02-07T17:14:07.714Z,18.80
2019-02-07T17:16:37.776Z,17.03
2019-02-07T17:19:08.376Z,13.00
2019-02-07T17:21:38.856Z,16.60
2019-02-07T17:24:09.480Z,17.73
2019-02-07T17:26:41.341Z,21.07
2019-02-07T17:29:13.100Z,12.83
2019-02-07T17:31:43.936Z,22.00
2019-02-07T17:34:14.132Z,17.60
2019-02-07T17:36:44.461Z,15.33
2019-02-07T17:39:14.946Z,17.73
2019-02-07T17:41:47.322Z,12.93
2019-02-07T17:44:19.343Z,14.23
2019-02-07T17:46:49.448Z,16.90
2019-02-07T17:49:19.843Z,17.03
2019-02-07T17:51:51.898Z,19.23
2019-02-07T17:54:22.162Z,15.23
2019-02-07T17:56:55.520Z,11.03
2019-02-07T17:59:27.275Z,13.87
2019-02-07T18:01:59.033Z,12.80
2019-02-07T18:04:29.611Z,18.53
2019-02-07T18:07:00.533Z,11.97
2019-02-07T18:09:31.100Z,15.80
2019-02-07T18:12:01.923Z,13.27
2019-02-07T18:14:33.695Z,17.07
2019-02-07T18:17:04.138Z,13.70
2019-02-07T18:19:34.579Z,14.67
2019-02-07T18:22:04.842Z,18.10
2019-02-07T18:24:36.999Z,18.90
2019-02-07T18:27:07.936Z,10.80
2019-02-07T18:29:39.880Z,14.03
2019-02-07T18:32:12.090Z,14.70
2019-02-07T18:34:42.652Z,15.77
2019-02-07T18:37:14.675Z,15.00
2019-02-07T18:39:46.619Z,13.53
2019-02-07T18:42:18.358Z,12.03
2019-02-07T18:44:50.289Z,10.97
2019-02-07T18:47:20.700Z,14.97
2019-02-07T18:49:51.476Z,8.77
2019-02-07T18:52:23.239Z,12.27
2019-02-07T18:54:53.413Z,18.37
2019-02-07T18:57:25.370Z,19.40
2019-02-07T18:59:55.701Z,19.67
2019-02-07T19:02:26.226Z,14.60
2019-02-07T19:04:58.367Z,12.70
2019-02-07T19:07:28.618Z,14.43
2019-02-07T19:10:00.411Z,11.03
2019-02-07T19:12:31.241Z,13.20
2019-02-07T19:15:02.735Z,18.10
2019-02-07T19:17:34.246Z,20.80
2019-02-07T19:20:07.763Z,15.73
2019-02-07T19:22:39.601Z,16.07
2019-02-07T19:25:10.984Z,16.97
2019-02-07T19:27:41.223Z,14.53
2019-02-07T19:30:31.842Z,12.20
2019-02-07T19:33:02.154Z,15.53
2019-02-07T19:35:32.305Z,12.30
2019-02-07T19:38:02.655Z,13.17
2019-02-07T19:40:32.810Z,8.53
2019-02-07T19:43:03.185Z,6.60
2019-02-07T19:45:33.565Z,11.13
2019-02-07T19:48:03.681Z,7.43
2019-02-07T19:50:33.863Z,9.90
2019-02-07T19:53:04.126Z,8.27
2019-02-07T19:55:35.055Z,9.03
2019-02-07T19:58:06.885Z,7.50
2019-02-07T20:00:39.380Z,6.10
2019-02-07T20:03:09.273Z,10.93
2019-02-07T20:05:39.519Z,6.30
2019-02-07T20:08:11.168Z,7.43
2019-02-07T20:10:41.337Z,8.93
2019-02-07T20:13:11.927Z,8.60
2019-02-07T20:15:43.935Z,4.67
2019-02-07T20:18:14.460Z,9.90
2019-02-07T20:20:46.526Z,12.70
2019-02-07T20:23:16.439Z,7.33
2019-02-07T20:25:46.886Z,9.07
2019-02-07T20:28:18.846Z,8.60
2019-02-07T20:33:22.403Z,8.00
2019-02-07T20:35:52.772Z,10.30
2019-02-07T20:38:23.538Z,8.97
2019-02-07T20:40:54.162Z,8.80
2019-02-07T20:43:24.388Z,8.37
2019-02-07T20:45:54.527Z,10.80
2019-02-07T20:48:24.950Z,7.33
2019-02-07T20:50:57.722Z,7.73
2019-02-07T20:53:28.610Z,11.07
2019-02-07T20:55:59.087Z,11.63
2019-02-07T20:58:29.294Z,5.77
2019-02-07T21:00:59.555Z,5.80
2019-02-07T21:03:29.756Z,7.17
2019-02-07T21:06:01.165Z,11.67
2019-02-07T21:08:31.757Z,11.87
2019-02-07T21:11:03.468Z,7.10
2019-02-07T21:13:33.638Z,8.27
2019-02-07T21:16:04.048Z,9.73
2019-02-07T21:18:34.581Z,8.77
2019-02-07T21:21:05.734Z,7.70
2019-02-07T21:23:36.766Z,11.30
2019-02-07T21:26:06.973Z,12.50
2019-02-07T21:28:37.515Z,10.37
2019-02-07T21:31:08.072Z,9.80
2019-02-07T21:33:38.196Z,9.03
2019-02-07T21:36:08.622Z,13.03
2019-02-07T21:38:38.920Z,14.10
2019-02-07T21:41:09.087Z,13.97
2019-02-07T21:43:40.745Z,10.20
2019-02-07T21:46:11.232Z,16.07
2019-02-07T21:48:41.467Z,10.97
2019-02-07T21:51:13.401Z,10.27
2019-02-07T21:53:45.192Z,14.03
2019-02-07T21:56:15.706Z,15.77
2019-02-07T21:58:46.024Z,15.90
2019-02-07T22:01:16.212Z,11.60
2019-02-07T22:03:46.468Z,14.73
2019-02-07T22:06:18.671Z,15.53
2019-02-07T22:08:49.624Z,16.40
2019-02-07T22:11:20.102Z,18.70
2019-02-07T22:13:50.220Z,15.07
2019-02-07T22:16:20.529Z,15.33
2019-02-07T22:18:50.971Z,15.03
2019-02-07T22:21:21.358Z,16.20
2019-02-07T22:23:51.646Z,14.67
2019-02-07T22:26:23.392Z,21.23
2019-02-07T22:28:53.500Z,16.20
2019-02-07T22:31:23.803Z,14.23
2019-02-07T22:33:54.493Z,20.20
2019-02-07T22:36:25.240Z,12.83
2019-02-07T22:38:55.763Z,16.67
2019-02-07T22:41:27.193Z,13.97
2019-02-07T22:43:57.571Z,13.30
2019-02-07T22:46:27.975Z,16.03
2019-02-07T22:48:58.197Z,15.93
2019-02-07T22:51:28.820Z,17.87
2019-02-07T22:53:59.196Z,14.77
2019-02-07T22:56:29.683Z,14.90
2019-02-07T22:59:00.104Z,22.03
2019-02-07T23:01:33.776Z,26.53
2019-02-07T23:04:06.885Z,16.50
2019-02-07T23:06:37.362Z,14.73
2019-02-07T23:09:10.597Z,18.40
2019-02-07T23:11:41.187Z,11.60
2019-02-07T23:14:12.220Z,12.83
2019-02-07T23:16:42.485Z,16.47
2019-02-07T23:19:13.010Z,23.93
2019-02-07T23:21:43.337Z,15.47
2019-02-07T23:24:13.984Z,16.13
2019-02-07T23:26:46.372Z,18.63
2019-02-07T23:29:16.971Z,18.13
2019-02-07T23:31:47.125Z,18.40
2019-02-07T23:34:17.586Z,14.43
2019-02-07T23:36:47.847Z,19.13
2019-02-07T23:39:18.397Z,14.80
2019-02-07T23:41:49.282Z,16.03
2019-02-07T23:44:19.516Z,25.50
2019-02-07T23:46:49.898Z,17.77
2019-02-07T23:49:20.145Z,25.23
2019-02-07T23:51:53.169Z,13.10
2019-02-07T23:54:23.846Z,20.57
2019-02-07T23:56:54.542Z,17.90
2019-02-07T23:59:24.939Z,19.93
